createdAt,value
2018-07-12T00:00:31.341Z,20.60
2018-07-12T00:01:31.321Z,21.50
2018-07-12T00:02:31.335Z,20.20
2018-07-12T00:03:31.353Z,20.90
2018-07-12T00:04:31.362Z,21.40
2018-07-12T00:05:31.381Z,21.50
2018-07-12T00:06:31.414Z,22.30
2018-07-12T00:07:31.411Z,20.80
2018-07-12T00:08:31.427Z,21.00
2018-07-12T00:09:31.450Z,20.60
2018-07-12T00:10:31.455Z,21.80
2018-07-12T00:11:31.472Z,21.20
2018-07-12T00:12:31.494Z,22.10
2018-07-12T00:13:31.501Z,21.10
2018-07-12T00:14:31.515Z,20.80
2018-07-12T00:15:31.532Z,22.20
2018-07-12T00:16:31.548Z,23.80
2018-07-12T00:17:31.561Z,24.70
2018-07-12T00:18:31.582Z,25.90
2018-07-12T00:19:31.592Z,22.90
2018-07-12T00:20:31.609Z,22.80
2018-07-12T00:21:31.620Z,22.80
2018-07-12T00:22:31.635Z,22.60
2018-07-12T00:23:31.650Z,25.90
2018-07-12T00:24:32.580Z,23.30
2018-07-12T00:25:31.685Z,26.80
2018-07-12T00:26:31.702Z,26.40
2018-07-12T00:27:31.712Z,26.10
2018-07-12T00:28:31.726Z,25.80
2018-07-12T00:29:31.745Z,26.60
2018-07-12T00:30:31.760Z,25.10
2018-07-12T00:31:31.792Z,29.80
2018-07-12T00:32:31.968Z,26.10
2018-07-12T00:33:31.806Z,28.60
2018-07-12T00:34:31.823Z,25.40
2018-07-12T00:35:31.834Z,24.20
2018-07-12T00:36:31.853Z,23.50
2018-07-12T00:37:31.866Z,25.90
2018-07-12T00:38:31.929Z,26.30
2018-07-12T00:39:31.895Z,23.80
2018-07-12T00:40:31.909Z,28.50
2018-07-12T00:41:31.926Z,25.00
2018-07-12T00:42:31.941Z,27.80
2018-07-12T00:43:31.956Z,25.70
2018-07-12T00:44:31.972Z,27.70
2018-07-12T00:45:31.986Z,25.30
2018-07-12T00:46:32.000Z,26.10
2018-07-12T00:47:32.021Z,26.50
2018-07-12T00:48:32.032Z,28.70
2018-07-12T00:49:32.047Z,27.70
2018-07-12T00:50:32.413Z,29.10
2018-07-12T00:51:32.078Z,27.70
2018-07-12T00:52:32.091Z,27.50
2018-07-12T00:53:32.108Z,27.60
2018-07-12T00:54:32.169Z,30.30
2018-07-12T00:56:32.157Z,29.00
2018-07-12T00:57:32.255Z,27.90
2018-07-12T00:58:32.183Z,28.60
2018-07-12T00:59:32.201Z,28.10
2018-07-12T01:00:32.212Z,29.70
2018-07-12T01:02:32.256Z,27.20
2018-07-12T01:03:32.413Z,31.40
2018-07-12T01:04:32.519Z,28.70
2018-07-12T01:05:32.372Z,29.30
2018-07-12T01:06:32.308Z,28.10
2018-07-12T01:07:32.321Z,27.90
2018-07-12T01:08:32.338Z,27.70
2018-07-12T01:09:32.350Z,28.70
2018-07-12T01:10:32.365Z,29.20
2018-07-12T01:11:32.382Z,29.20
2018-07-12T01:12:32.393Z,30.10
2018-07-12T01:13:32.414Z,28.20
2018-07-12T01:14:32.431Z,28.00
2018-07-12T01:15:32.440Z,28.40
2018-07-12T01:16:32.458Z,31.50
2018-07-12T01:17:32.470Z,28.90
2018-07-12T01:18:32.496Z,30.00
2018-07-12T01:19:32.500Z,29.40
2018-07-12T01:20:32.526Z,28.90
2018-07-12T01:21:32.530Z,28.90
2018-07-12T01:22:32.551Z,29.10
2018-07-12T01:23:32.567Z,31.10
2018-07-12T01:24:32.580Z,31.10
2018-07-12T01:25:32.593Z,31.50
2018-07-12T01:26:32.608Z,30.60
2018-07-12T01:27:32.627Z,30.50
2018-07-12T01:28:32.636Z,29.40
2018-07-12T01:29:32.658Z,31.00
2018-07-12T01:30:33.208Z,29.20
2018-07-12T01:31:32.682Z,29.90
2018-07-12T01:32:32.698Z,27.80
2018-07-12T01:33:32.713Z,29.10
2018-07-12T01:34:32.732Z,31.60
2018-07-12T01:35:32.756Z,29.90
2018-07-12T01:36:32.808Z,31.60
2018-07-12T01:37:32.776Z,29.90
2018-07-12T01:38:32.787Z,29.10
2018-07-12T01:39:32.802Z,29.90
2018-07-12T01:40:32.821Z,29.50
2018-07-12T01:41:32.836Z,35.70
2018-07-12T01:42:32.849Z,32.20
2018-07-12T01:43:32.968Z,32.80
2018-07-12T01:44:32.895Z,30.20
2018-07-12T01:45:32.901Z,30.60
2018-07-12T01:46:33.022Z,34.80
2018-07-12T01:47:32.960Z,33.20
2018-07-12T01:48:32.941Z,33.50
2018-07-12T01:49:32.953Z,31.40
2018-07-12T01:50:32.968Z,33.40
2018-07-12T01:51:32.982Z,33.80
2018-07-12T01:52:32.996Z,33.10
2018-07-12T01:53:33.011Z,29.80
2018-07-12T01:54:33.028Z,35.70
2018-07-12T01:55:33.043Z,32.40
2018-07-12T01:56:33.063Z,35.40
2018-07-12T01:57:33.073Z,38.70
2018-07-12T01:58:33.093Z,34.80
2018-07-12T01:59:33.254Z,32.20
2018-07-12T02:00:33.165Z,35.10
2018-07-12T02:01:33.133Z,34.20
2018-07-12T02:02:33.158Z,36.80
2018-07-12T02:03:33.166Z,33.20
2018-07-12T02:04:33.190Z,33.10
2018-07-12T02:05:33.398Z,32.40
2018-07-12T02:06:33.360Z,35.50
2018-07-12T02:07:33.221Z,37.30
2018-07-12T02:08:33.240Z,32.80
2018-07-12T02:09:33.252Z,30.40
2018-07-12T02:10:33.270Z,31.00
2018-07-12T02:11:33.335Z,34.60
2018-07-12T02:12:33.302Z,33.40
2018-07-12T02:13:33.362Z,35.70
2018-07-12T02:14:33.332Z,32.30
2018-07-12T02:15:33.444Z,37.00
2018-07-12T02:16:33.358Z,33.90
2018-07-12T02:17:33.373Z,34.20
2018-07-12T02:18:33.389Z,32.90
2018-07-12T02:19:33.405Z,32.10
2018-07-12T02:20:33.422Z,31.70
2018-07-12T02:21:33.439Z,30.70
2018-07-12T02:22:33.471Z,32.30
2018-07-12T02:23:33.466Z,30.50
2018-07-12T02:24:33.479Z,29.80
2018-07-12T02:25:33.503Z,30.30
2018-07-12T02:26:33.508Z,33.60
2018-07-12T02:27:33.558Z,36.40
2018-07-12T02:28:33.539Z,31.60
2018-07-12T02:29:33.869Z,32.50
2018-07-12T02:30:33.963Z,32.10
2018-07-12T02:31:33.585Z,29.10
2018-07-12T02:32:33.601Z,28.00
2018-07-12T02:33:33.616Z,32.50
2018-07-12T02:34:33.633Z,28.70
2018-07-12T02:35:33.692Z,30.50
2018-07-12T02:36:33.658Z,29.60
2018-07-12T02:37:33.718Z,28.60
2018-07-12T02:38:33.690Z,29.40
2018-07-12T02:39:33.705Z,27.30
2018-07-12T02:40:33.721Z,28.30
2018-07-12T02:41:33.733Z,27.80
2018-07-12T02:42:33.755Z,30.30
2018-07-12T02:43:33.769Z,31.40
2018-07-12T02:44:33.777Z,27.80
2018-07-12T02:45:33.792Z,28.30
2018-07-12T02:46:33.814Z,28.10
2018-07-12T02:47:33.823Z,26.30
2018-07-12T02:48:33.836Z,30.90
2018-07-12T02:49:33.873Z,30.60
2018-07-12T02:50:33.869Z,30.60
2018-07-12T02:51:33.890Z,29.80
2018-07-12T02:52:33.901Z,26.40
2018-07-12T02:53:33.917Z,29.10
2018-07-12T02:54:33.929Z,28.30
2018-07-12T02:55:33.946Z,29.10
2018-07-12T02:56:33.961Z,31.90
2018-07-12T02:57:33.972Z,28.00
2018-07-12T02:58:33.994Z,29.00
2018-07-12T02:59:34.005Z,29.70
2018-07-12T03:00:34.034Z,27.60
2018-07-12T03:01:34.035Z,29.80
2018-07-12T03:02:34.053Z,33.40
2018-07-12T03:03:34.127Z,29.90
2018-07-12T03:04:34.079Z,34.10
2018-07-12T03:05:34.121Z,31.60
2018-07-12T03:06:34.112Z,28.60
2018-07-12T03:07:34.128Z,32.50
2018-07-12T03:08:34.139Z,33.50
2018-07-12T03:09:34.155Z,30.00
2018-07-12T03:11:34.259Z,27.90
2018-07-12T03:12:34.199Z,29.30
2018-07-12T03:13:34.213Z,32.60
2018-07-12T03:14:34.224Z,31.10
2018-07-12T03:15:34.255Z,28.40
2018-07-12T03:16:34.255Z,29.80
2018-07-12T03:17:34.270Z,32.70
2018-07-12T03:18:34.284Z,32.10
2018-07-12T03:19:34.311Z,28.50
2018-07-12T03:20:34.315Z,30.50
2018-07-12T03:21:34.334Z,29.20
2018-07-12T03:22:34.353Z,30.10
2018-07-12T03:23:34.366Z,30.00
2018-07-12T03:24:34.382Z,27.80
2018-07-12T03:25:34.390Z,27.40
2018-07-12T03:26:34.410Z,30.30
2018-07-12T03:27:34.441Z,34.60
2018-07-12T03:28:34.441Z,27.40
2018-07-12T03:29:34.449Z,27.80
2018-07-12T03:30:34.462Z,29.40
2018-07-12T03:31:34.481Z,32.40
2018-07-12T03:32:34.545Z,28.70
2018-07-12T03:33:34.509Z,27.10
2018-07-12T03:34:34.872Z,28.10
2018-07-12T03:35:34.539Z,26.80
2018-07-12T03:36:34.553Z,28.10
2018-07-12T03:37:34.574Z,30.40
2018-07-12T03:38:34.584Z,28.30
2018-07-12T03:39:34.600Z,28.20
2018-07-12T03:40:34.657Z,28.00
2018-07-12T03:41:34.629Z,26.00
2018-07-12T03:42:34.662Z,28.80
2018-07-12T03:43:34.737Z,26.70
2018-07-12T03:44:34.675Z,27.90
2018-07-12T03:45:34.689Z,28.30
2018-07-12T03:46:34.752Z,29.90
2018-07-12T03:47:34.722Z,24.30
2018-07-12T03:48:34.768Z,26.50
2018-07-12T03:49:34.748Z,25.90
2018-07-12T03:50:34.765Z,24.60
2018-07-12T03:51:34.777Z,24.60
2018-07-12T03:52:34.799Z,25.90
2018-07-12T03:53:34.824Z,24.60
2018-07-12T03:54:34.836Z,29.30
2018-07-12T03:55:34.838Z,26.90
2018-07-12T03:56:34.855Z,25.70
2018-07-12T03:57:34.870Z,24.90
2018-07-12T03:58:34.883Z,26.30
2018-07-12T03:59:34.897Z,23.80
2018-07-12T04:00:34.913Z,26.00
2018-07-12T04:01:34.946Z,28.90
2018-07-12T04:02:34.942Z,25.30
2018-07-12T04:03:34.986Z,27.70
2018-07-12T04:04:34.970Z,25.20
2018-07-12T04:05:34.984Z,26.50
2018-07-12T04:06:35.048Z,24.40
2018-07-12T04:07:35.423Z,26.00
2018-07-12T04:08:35.698Z,27.00
2018-07-12T04:09:35.046Z,25.70
2018-07-12T04:10:35.062Z,24.60
2018-07-12T04:11:35.076Z,24.90
2018-07-12T04:12:35.090Z,29.00
2018-07-12T04:13:35.157Z,26.60
2018-07-12T04:14:35.306Z,25.80
2018-07-12T04:15:35.137Z,24.90
2018-07-12T04:16:35.154Z,24.80
2018-07-12T04:17:35.165Z,28.60
2018-07-12T04:18:35.179Z,25.50
2018-07-12T04:19:35.195Z,25.00
2018-07-12T04:20:35.230Z,25.50
2018-07-12T04:21:35.228Z,29.00
2018-07-12T04:22:35.244Z,27.60
2018-07-12T04:23:35.253Z,24.90
2018-07-12T04:24:35.276Z,23.30
2018-07-12T04:25:35.283Z,31.30
2018-07-12T04:26:35.300Z,25.30
2018-07-12T04:27:35.316Z,22.20
2018-07-12T04:28:35.331Z,24.90
2018-07-12T04:29:35.350Z,24.00
2018-07-12T04:30:35.369Z,25.40
2018-07-12T04:31:35.374Z,27.00
2018-07-12T04:32:35.391Z,26.30
2018-07-12T04:33:35.406Z,26.90
2018-07-12T04:35:35.432Z,25.40
2018-07-12T04:36:35.456Z,23.90
2018-07-12T04:37:35.471Z,24.70
2018-07-12T04:38:35.479Z,28.50
2018-07-12T04:39:35.495Z,26.30
2018-07-12T04:40:35.512Z,24.70
2018-07-12T04:41:35.524Z,24.30
2018-07-12T04:42:35.538Z,24.40
2018-07-12T04:43:36.057Z,25.30
2018-07-12T04:44:36.391Z,26.20
2018-07-12T04:45:35.582Z,26.00
2018-07-12T04:46:35.675Z,25.10
2018-07-12T04:47:35.644Z,24.20
2018-07-12T04:48:35.632Z,21.70
2018-07-12T04:49:35.643Z,23.10
2018-07-12T04:50:35.658Z,22.20
2018-07-12T04:51:35.676Z,21.20
2018-07-12T04:52:35.689Z,20.40
2018-07-12T04:53:35.702Z,26.90
2018-07-12T04:54:35.718Z,20.80
2018-07-12T04:55:35.731Z,22.40
2018-07-12T04:56:35.748Z,21.70
2018-07-12T04:57:35.764Z,25.10
2018-07-12T04:58:35.897Z,21.00
2018-07-12T04:59:35.814Z,22.10
2018-07-12T05:00:35.808Z,24.40
2018-07-12T05:01:35.824Z,22.90
2018-07-12T05:02:35.918Z,27.40
2018-07-12T05:03:35.856Z,22.80
2018-07-12T05:05:35.885Z,21.10
2018-07-12T05:06:35.899Z,23.40
2018-07-12T05:07:36.137Z,23.20
2018-07-12T05:08:35.939Z,20.00
2018-07-12T05:09:36.015Z,23.20
2018-07-12T05:10:35.987Z,24.60
2018-07-12T05:11:36.050Z,25.80
2018-07-12T05:12:36.006Z,22.70
2018-07-12T05:13:36.006Z,25.30
2018-07-12T05:14:36.026Z,22.30
2018-07-12T05:15:36.034Z,21.30
2018-07-12T05:16:36.052Z,25.70
2018-07-12T05:17:36.072Z,24.30
2018-07-12T05:18:36.104Z,20.90
2018-07-12T05:19:36.120Z,25.40
2018-07-12T05:20:36.131Z,20.80
2018-07-12T05:21:36.129Z,22.10
2018-07-12T05:22:36.173Z,24.00
2018-07-12T05:23:36.315Z,20.90
2018-07-12T05:24:36.184Z,22.10
2018-07-12T05:25:36.192Z,23.90
2018-07-12T05:26:36.204Z,22.70
2018-07-12T05:27:36.217Z,24.40
2018-07-12T05:28:36.235Z,19.70
2018-07-12T05:29:36.286Z,22.40
2018-07-12T05:30:36.263Z,21.10
2018-07-12T05:31:36.290Z,20.30
2018-07-12T05:32:36.288Z,21.90
2018-07-12T05:33:36.315Z,18.90
2018-07-12T05:34:36.493Z,19.90
2018-07-12T05:35:36.335Z,20.70
2018-07-12T05:36:36.648Z,22.60
2018-07-12T05:37:36.486Z,21.90
2018-07-12T05:38:36.383Z,20.10
2018-07-12T05:39:36.399Z,19.30
2018-07-12T05:40:36.711Z,22.50
2018-07-12T05:41:36.429Z,19.10
2018-07-12T05:42:36.438Z,22.30
2018-07-12T05:43:36.454Z,19.30
2018-07-12T05:44:36.467Z,22.60
2018-07-12T05:45:36.479Z,21.00
2018-07-12T05:46:36.560Z,18.00
2018-07-12T05:47:36.508Z,20.40
2018-07-12T05:48:36.586Z,18.20
2018-07-12T05:49:36.695Z,20.90
2018-07-12T05:50:37.109Z,21.50
2018-07-12T05:51:36.632Z,18.80
2018-07-12T05:52:36.617Z,19.60
2018-07-12T05:53:36.613Z,17.70
2018-07-12T05:54:36.617Z,22.10
2018-07-12T05:55:36.654Z,19.90
2018-07-12T05:56:36.647Z,23.10
2018-07-12T05:57:36.771Z,18.00
2018-07-12T05:58:36.690Z,18.90
2018-07-12T05:59:36.697Z,17.40
2018-07-12T06:00:36.709Z,21.20
2018-07-12T06:01:36.720Z,18.80
2018-07-12T06:02:36.741Z,19.90
2018-07-12T06:03:36.752Z,17.90
2018-07-12T06:04:36.787Z,17.60
2018-07-12T06:06:36.796Z,18.80
2018-07-12T06:07:36.899Z,19.80
2018-07-12T06:08:36.834Z,16.80
2018-07-12T06:09:36.846Z,20.60
2018-07-12T06:10:36.863Z,17.10
2018-07-12T06:11:36.873Z,18.20
2018-07-12T06:12:36.904Z,18.80
2018-07-12T06:13:36.902Z,16.80
2018-07-12T06:14:36.917Z,18.20
2018-07-12T06:15:36.934Z,24.60
2018-07-12T06:16:36.948Z,18.00
2018-07-12T06:17:36.967Z,17.60
2018-07-12T06:18:37.029Z,15.40
2018-07-12T06:19:36.999Z,18.80
2018-07-12T06:20:37.016Z,20.20
2018-07-12T06:21:37.031Z,21.00
2018-07-12T06:22:37.041Z,18.70
2018-07-12T06:23:37.064Z,18.20
2018-07-12T06:24:37.119Z,18.20
2018-07-12T06:25:37.200Z,16.70
2018-07-12T06:26:37.147Z,15.30
2018-07-12T06:27:37.116Z,18.00
2018-07-12T06:28:37.330Z,17.40
2018-07-12T06:29:37.147Z,17.90
2018-07-12T06:30:37.161Z,17.00
2018-07-12T06:31:37.183Z,17.10
2018-07-12T06:32:37.250Z,20.10
2018-07-12T06:33:37.207Z,20.10
2018-07-12T06:34:37.904Z,17.20
2018-07-12T06:35:37.754Z,16.10
2018-07-12T06:36:37.574Z,18.10
2018-07-12T06:37:37.330Z,14.20
2018-07-12T06:38:37.286Z,17.50
2018-07-12T06:39:37.397Z,14.50
2018-07-12T06:40:37.799Z,21.00
2018-07-12T06:41:37.677Z,14.70
2018-07-12T06:42:37.398Z,16.70
2018-07-12T06:43:37.363Z,15.60
2018-07-12T06:44:37.379Z,16.80
2018-07-12T06:45:37.392Z,16.70
2018-07-12T06:46:37.425Z,18.80
2018-07-12T06:47:37.828Z,21.20
2018-07-12T06:48:37.435Z,18.00
2018-07-12T06:49:37.456Z,20.40
2018-07-12T06:50:37.468Z,18.70
2018-07-12T06:51:37.484Z,19.10
2018-07-12T06:52:37.925Z,17.60
2018-07-12T06:53:37.814Z,20.30
2018-07-12T06:54:37.576Z,14.80
2018-07-12T06:55:37.548Z,15.70
2018-07-12T06:56:37.565Z,16.30
2018-07-12T06:57:37.656Z,18.60
2018-07-12T06:58:37.729Z,16.90
2018-07-12T06:59:37.660Z,16.00
2018-07-12T07:00:37.677Z,16.10
2018-07-12T07:01:37.645Z,22.70
2018-07-12T07:02:37.657Z,19.70
2018-07-12T07:03:37.675Z,16.30
2018-07-12T07:04:37.688Z,16.70
2018-07-12T07:05:37.764Z,16.50
2018-07-12T07:06:38.017Z,17.60
2018-07-12T07:07:37.744Z,16.80
2018-07-12T07:08:37.773Z,17.60
2018-07-12T07:09:37.775Z,19.70
2018-07-12T07:10:38.454Z,16.30
2018-07-12T07:11:37.793Z,13.50
2018-07-12T07:12:37.808Z,17.50
2018-07-12T07:13:37.867Z,17.80
2018-07-12T07:14:37.879Z,14.20
2018-07-12T07:15:37.861Z,14.90
2018-07-12T07:16:37.871Z,16.70
2018-07-12T07:17:37.885Z,14.60
2018-07-12T07:18:37.905Z,15.10
2018-07-12T07:19:37.924Z,15.70
2018-07-12T07:20:37.938Z,14.60
2018-07-12T07:21:37.958Z,14.10
2018-07-12T07:22:37.965Z,15.00
2018-07-12T07:23:37.995Z,14.60
2018-07-12T07:24:38.000Z,17.10
2018-07-12T07:25:38.033Z,14.40
2018-07-12T07:26:38.033Z,14.40
2018-07-12T07:27:38.246Z,15.80
2018-07-12T07:28:38.681Z,14.10
2018-07-12T07:29:38.280Z,14.60
2018-07-12T07:30:38.116Z,12.90
2018-07-12T07:31:39.030Z,14.50
2018-07-12T07:32:39.061Z,15.00
2018-07-12T07:33:39.553Z,13.60
2018-07-12T07:34:38.154Z,14.70
2018-07-12T07:35:38.219Z,13.40
2018-07-12T07:36:38.323Z,13.90
2018-07-12T07:37:38.224Z,15.80
2018-07-12T07:38:38.612Z,16.50
2018-07-12T07:39:38.354Z,13.10
2018-07-12T07:40:38.257Z,17.20
2018-07-12T07:41:38.289Z,11.50
2018-07-12T07:42:38.527Z,15.00
2018-07-12T07:43:38.316Z,15.90
2018-07-12T07:44:38.323Z,12.80
2018-07-12T07:45:38.331Z,11.40
2018-07-12T07:46:38.354Z,15.60
2018-07-12T07:47:38.357Z,11.20
2018-07-12T07:48:38.393Z,11.30
2018-07-12T07:49:38.388Z,14.50
2018-07-12T07:50:38.686Z,17.30
2018-07-12T07:51:38.646Z,12.90
2018-07-12T07:52:39.189Z,13.30
2018-07-12T07:53:38.648Z,15.60
2018-07-12T07:54:38.736Z,14.10
2018-07-12T07:55:39.204Z,13.00
2018-07-12T07:56:39.108Z,14.50
2018-07-12T07:57:38.749Z,12.70
2018-07-12T07:58:38.791Z,13.50
2018-07-12T07:59:38.851Z,12.10
2018-07-12T08:00:38.653Z,12.50
2018-07-12T08:01:38.654Z,13.30
2018-07-12T08:03:38.645Z,14.60
2018-07-12T08:04:38.618Z,12.20
2018-07-12T08:05:38.693Z,11.60
2018-07-12T08:06:39.175Z,10.80
2018-07-12T08:07:39.079Z,9.70
2018-07-12T08:08:38.695Z,12.10
2018-07-12T08:09:39.031Z,11.50
2018-07-12T08:10:39.873Z,11.80
2018-07-12T08:11:38.846Z,13.10
2018-07-12T08:12:38.917Z,14.70
2018-07-12T08:13:38.953Z,12.90
2018-07-12T08:14:39.018Z,13.10
2018-07-12T08:15:39.118Z,12.80
2018-07-12T08:16:40.769Z,14.10
2018-07-12T08:17:40.129Z,11.70
2018-07-12T08:18:39.621Z,10.70
2018-07-12T08:19:38.858Z,11.60
2018-07-12T08:20:38.916Z,8.20
2018-07-12T08:22:38.982Z,9.30
2018-07-12T08:23:39.079Z,12.60
2018-07-12T08:24:39.363Z,9.50
2018-07-12T08:25:39.054Z,12.90
2018-07-12T08:26:38.988Z,8.90
2018-07-12T08:27:38.988Z,11.20
2018-07-12T08:28:39.019Z,11.30
2018-07-12T08:29:39.019Z,9.80
2018-07-12T08:30:39.037Z,9.60
2018-07-12T08:31:39.053Z,9.40
2018-07-12T08:32:39.066Z,11.10
2018-07-12T08:33:39.085Z,9.70
2018-07-12T08:34:39.099Z,10.20
2018-07-12T08:35:39.122Z,12.20
2018-07-12T08:36:39.133Z,12.90
2018-07-12T08:37:39.184Z,13.40
2018-07-12T08:38:39.212Z,10.30
2018-07-12T08:39:39.181Z,9.00
2018-07-12T08:40:39.389Z,11.10
2018-07-12T08:41:39.210Z,10.60
2018-07-12T08:42:39.276Z,7.20
2018-07-12T08:43:39.347Z,10.00
2018-07-12T08:44:39.349Z,9.50
2018-07-12T08:45:39.284Z,11.00
2018-07-12T08:46:39.292Z,9.50
2018-07-12T08:47:39.367Z,10.60
2018-07-12T08:48:39.325Z,11.10
2018-07-12T08:49:39.411Z,10.10
2018-07-12T08:50:39.545Z,8.10
2018-07-12T08:52:39.755Z,9.20
2018-07-12T08:53:39.487Z,10.50
2018-07-12T08:55:39.451Z,8.40
2018-07-12T08:56:39.452Z,8.30
2018-07-12T08:57:39.522Z,9.70
2018-07-12T08:58:39.496Z,8.90
2018-07-12T08:59:39.938Z,7.50
2018-07-12T09:00:39.601Z,9.50
2018-07-12T09:01:39.540Z,6.70
2018-07-12T09:02:39.674Z,11.10
2018-07-12T09:03:39.605Z,7.50
2018-07-12T09:04:39.581Z,8.30
2018-07-12T09:05:39.598Z,7.60
2018-07-12T09:06:39.615Z,8.10
2018-07-12T09:07:39.637Z,9.30
2018-07-12T09:08:39.647Z,10.10
2018-07-12T09:09:39.662Z,8.20
2018-07-12T09:10:41.645Z,11.90
2018-07-12T09:11:39.698Z,10.00
2018-07-12T09:12:39.717Z,9.70
2018-07-12T09:13:39.728Z,9.40
2018-07-12T09:14:39.747Z,9.70
2018-07-12T09:15:39.820Z,9.50
2018-07-12T09:16:39.793Z,10.30
2018-07-12T09:17:39.805Z,12.20
2018-07-12T09:18:39.813Z,8.70
2018-07-12T09:19:39.830Z,8.30
2018-07-12T09:20:39.910Z,14.30
2018-07-12T09:21:39.922Z,9.40
2018-07-12T09:22:39.881Z,9.10
2018-07-12T09:24:40.810Z,10.50
2018-07-12T09:25:41.003Z,8.80
2018-07-12T09:26:39.951Z,11.60
2018-07-12T09:27:39.969Z,9.80
2018-07-12T09:28:39.989Z,9.70
2018-07-12T09:29:40.061Z,10.50
2018-07-12T09:30:40.079Z,10.10
2018-07-12T09:31:40.051Z,9.10
2018-07-12T09:32:40.048Z,12.10
2018-07-12T09:33:40.077Z,9.40
2018-07-12T09:34:40.271Z,11.30
2018-07-12T09:35:40.104Z,8.20
2018-07-12T09:36:40.177Z,8.90
2018-07-12T09:37:40.130Z,9.50
2018-07-12T09:38:40.151Z,10.20
2018-07-12T09:39:40.231Z,9.60
2018-07-12T09:40:40.665Z,12.80
2018-07-12T09:41:40.969Z,10.40
2018-07-12T09:42:40.982Z,11.70
2018-07-12T09:43:40.915Z,10.50
2018-07-12T09:44:42.193Z,10.50
2018-07-12T09:45:40.763Z,10.70
2018-07-12T09:47:40.355Z,8.80
2018-07-12T09:48:40.322Z,9.30
2018-07-12T09:49:40.335Z,8.30
2018-07-12T09:50:40.357Z,9.40
2018-07-12T09:51:40.437Z,10.80
2018-07-12T09:52:40.516Z,11.10
2018-07-12T09:53:40.513Z,8.60
2018-07-12T09:54:40.553Z,10.00
2018-07-12T09:55:40.556Z,9.30
2018-07-12T09:56:41.151Z,10.30
2018-07-12T09:57:40.492Z,10.60
2018-07-12T09:58:40.521Z,12.10
2018-07-12T09:59:40.517Z,11.50
2018-07-12T10:00:40.540Z,10.20
2018-07-12T10:01:40.540Z,9.70
2018-07-12T10:02:40.558Z,9.20
2018-07-12T10:03:40.603Z,11.40
2018-07-12T10:04:40.592Z,13.10
2018-07-12T10:05:40.697Z,11.30
2018-07-12T10:07:40.714Z,9.40
2018-07-12T10:08:40.663Z,10.30
2018-07-12T10:09:40.742Z,9.70
2018-07-12T10:10:40.873Z,11.50
2018-07-12T10:11:40.713Z,12.60
2018-07-12T10:12:40.743Z,12.80
2018-07-12T10:13:40.914Z,12.90
2018-07-12T10:14:40.774Z,12.90
2018-07-12T10:15:41.108Z,10.30
2018-07-12T10:16:40.816Z,11.20
2018-07-12T10:17:40.821Z,11.00
2018-07-12T10:18:40.835Z,13.20
2018-07-12T10:19:40.852Z,11.60
2018-07-12T10:20:40.878Z,10.70
2018-07-12T10:21:40.888Z,12.90
2018-07-12T10:22:40.902Z,11.50
2018-07-12T10:23:40.961Z,10.90
2018-07-12T10:24:40.955Z,10.50
2018-07-12T10:25:40.954Z,12.40
2018-07-12T10:26:40.975Z,14.00
2018-07-12T10:27:40.989Z,11.40
2018-07-12T10:28:41.354Z,12.20
2018-07-12T10:29:41.063Z,10.40
2018-07-12T10:30:41.128Z,11.50
2018-07-12T10:31:41.074Z,11.30
2018-07-12T10:32:41.092Z,13.50
2018-07-12T10:33:41.097Z,11.30
2018-07-12T10:34:41.112Z,15.00
2018-07-12T10:35:41.133Z,13.60
2018-07-12T10:36:41.270Z,12.50
2018-07-12T10:37:41.164Z,13.90
2018-07-12T10:38:41.187Z,11.80
2018-07-12T10:39:41.199Z,13.30
2018-07-12T10:40:41.216Z,11.80
2018-07-12T10:41:41.235Z,11.30
2018-07-12T10:42:41.255Z,11.30
2018-07-12T10:43:41.271Z,12.20
2018-07-12T10:44:41.303Z,12.20
2018-07-12T10:46:41.421Z,12.60
2018-07-12T10:47:41.347Z,11.80
2018-07-12T10:48:41.356Z,9.80
2018-07-12T10:49:41.379Z,12.00
2018-07-12T10:50:41.496Z,11.20
2018-07-12T10:51:41.417Z,11.70
2018-07-12T10:52:41.429Z,13.50
2018-07-12T10:53:41.444Z,12.50
2018-07-12T10:54:41.465Z,14.10
2018-07-12T10:55:41.478Z,11.60
2018-07-12T10:56:41.494Z,12.40
2018-07-12T10:57:41.517Z,10.20
2018-07-12T10:58:41.580Z,10.70
2018-07-12T10:59:41.824Z,11.90
2018-07-12T11:00:41.584Z,12.40
2018-07-12T11:01:41.583Z,10.70
2018-07-12T11:02:41.599Z,10.10
2018-07-12T11:03:41.672Z,10.30
2018-07-12T11:04:41.843Z,10.60
2018-07-12T11:05:41.731Z,10.70
2018-07-12T11:06:41.869Z,9.10
2018-07-12T11:07:41.686Z,13.40
2018-07-12T11:08:41.704Z,12.20
2018-07-12T11:09:41.730Z,9.00
2018-07-12T11:10:41.775Z,9.40
2018-07-12T11:11:41.754Z,8.40
2018-07-12T11:12:41.777Z,9.20
2018-07-12T11:13:41.791Z,9.90
2018-07-12T11:14:41.831Z,9.90
2018-07-12T11:15:41.830Z,10.50
2018-07-12T11:16:41.849Z,13.90
2018-07-12T11:18:42.021Z,12.30
2018-07-12T11:20:41.916Z,12.60
2018-07-12T11:21:42.784Z,12.90
2018-07-12T11:22:42.279Z,12.40
2018-07-12T11:23:41.973Z,15.70
2018-07-12T11:24:42.901Z,11.50
2018-07-12T11:26:42.020Z,11.20
2018-07-12T11:27:42.037Z,12.80
2018-07-12T11:28:42.190Z,10.10
2018-07-12T11:29:42.089Z,12.00
2018-07-12T11:30:42.239Z,13.90
2018-07-12T11:31:42.113Z,12.30
2018-07-12T11:32:42.129Z,11.20
2018-07-12T11:33:42.155Z,11.90
2018-07-12T11:34:42.164Z,12.00
2018-07-12T11:35:42.260Z,12.70
2018-07-12T11:36:42.203Z,11.00
2018-07-12T11:37:42.229Z,12.50
2018-07-12T11:38:42.237Z,10.90
2018-07-12T11:39:42.344Z,9.20
2018-07-12T11:40:42.283Z,10.20
2018-07-12T11:41:42.314Z,11.00
2018-07-12T11:42:42.308Z,12.40
2018-07-12T11:43:42.329Z,13.20
2018-07-12T11:44:42.379Z,12.20
2018-07-12T11:45:42.371Z,11.10
2018-07-12T11:46:42.387Z,10.10
2018-07-12T11:47:42.401Z,12.30
2018-07-12T11:48:42.472Z,12.40
2018-07-12T11:49:42.441Z,8.90
2018-07-12T11:50:42.458Z,11.10
2018-07-12T11:52:43.379Z,11.60
2018-07-12T11:53:42.820Z,10.70
2018-07-12T11:54:43.000Z,12.00
2018-07-12T11:55:42.555Z,11.20
2018-07-12T11:56:42.576Z,10.70
2018-07-12T11:57:42.588Z,10.50
2018-07-12T11:58:42.605Z,12.00
2018-07-12T11:59:42.631Z,11.90
2018-07-12T12:00:42.642Z,11.80
2018-07-12T12:01:42.768Z,11.00
2018-07-12T12:02:42.681Z,10.60
2018-07-12T12:03:42.731Z,9.30
2018-07-12T12:04:42.719Z,10.90
2018-07-12T12:05:42.738Z,12.70
2018-07-12T12:06:42.756Z,11.30
2018-07-12T12:07:42.956Z,12.20
2018-07-12T12:08:42.795Z,11.70
2018-07-12T12:09:43.892Z,9.50
2018-07-12T12:10:42.966Z,11.70
2018-07-12T12:11:42.875Z,9.70
2018-07-12T12:12:43.355Z,9.10
2018-07-12T12:13:42.890Z,10.30
2018-07-12T12:14:42.912Z,8.90
2018-07-12T12:15:42.948Z,11.50
2018-07-12T12:16:42.962Z,10.80
2018-07-12T12:17:43.021Z,12.40
2018-07-12T12:18:43.220Z,11.50
2018-07-12T12:19:43.334Z,11.20
2018-07-12T12:20:43.042Z,10.20
2018-07-12T12:21:43.047Z,10.50
2018-07-12T12:22:43.065Z,8.60
2018-07-12T12:23:43.088Z,10.70
2018-07-12T12:24:43.204Z,10.30
2018-07-12T12:25:43.114Z,9.70
2018-07-12T12:26:43.139Z,9.00
2018-07-12T12:27:43.184Z,7.10
2018-07-12T12:28:43.170Z,7.70
2018-07-12T12:29:43.197Z,9.30
2018-07-12T12:30:43.207Z,9.40
2018-07-12T12:31:43.232Z,10.60
2018-07-12T12:32:43.251Z,8.40
2018-07-12T12:33:43.270Z,10.60
2018-07-12T12:34:43.284Z,11.10
2018-07-12T12:35:43.310Z,10.30
2018-07-12T12:36:43.881Z,11.10
2018-07-12T12:37:43.703Z,8.00
2018-07-12T12:38:43.428Z,9.60
2018-07-12T12:39:43.381Z,8.80
2018-07-12T12:40:43.411Z,7.80
2018-07-12T12:41:43.437Z,8.50
2018-07-12T12:42:43.443Z,7.40
2018-07-12T12:43:43.456Z,9.70
2018-07-12T12:44:43.476Z,7.80
2018-07-12T12:45:43.494Z,9.50
2018-07-12T12:46:43.514Z,8.00
2018-07-12T12:47:43.535Z,8.20
2018-07-12T12:48:43.599Z,9.00
2018-07-12T12:49:43.572Z,7.70
2018-07-12T12:50:43.591Z,9.20
2018-07-12T12:51:43.606Z,7.70
2018-07-12T12:52:43.623Z,7.10
2018-07-12T12:53:43.642Z,8.90
2018-07-12T12:54:43.665Z,8.60
2018-07-12T12:55:43.681Z,7.20
2018-07-12T12:56:43.698Z,7.70
2018-07-12T12:57:43.727Z,6.50
2018-07-12T12:58:43.741Z,9.50
2018-07-12T12:59:43.750Z,8.50
2018-07-12T13:00:43.772Z,7.00
2018-07-12T13:01:43.788Z,8.50
2018-07-12T13:02:43.810Z,6.60
2018-07-12T13:03:43.824Z,9.60
2018-07-12T13:04:43.851Z,9.00
2018-07-12T13:05:43.865Z,8.10
2018-07-12T13:06:43.900Z,8.60
2018-07-12T13:07:43.903Z,5.80
2018-07-12T13:08:43.914Z,7.70
2018-07-12T13:09:43.939Z,6.80
2018-07-12T13:10:44.001Z,7.60
2018-07-12T13:11:43.998Z,7.70
2018-07-12T13:12:43.989Z,7.60
2018-07-12T13:13:44.010Z,5.90
2018-07-12T13:14:44.035Z,6.50